sensor_id;sensor_type;location;lat;lon;timestamp;temperature;humidity
20315;DHT22;10315;50.958;13.080;2023-12-20T00:01:22;4.10;99.90
20315;DHT22;10315;50.958;13.080;2023-12-20T00:11:25;4.10;99.90
20315;DHT22;10315;50.958;13.080;2023-12-20T00:21:26;4.20;99.90
20315;DHT22;10315;50.958;13.080;2023-12-20T00:31:29;3.90;99.90
20315;DHT22;10315;50.958;13.080;2023-12-20T00:41:31;3.90;99.90
20315;DHT22;10315;50.958;13.080;2023-12-20T00:51:33;3.90;99.90
20315;DHT22;10315;50.958;13.080;2023-12-20T01:01:35;3.80;99.90
20315;DHT22;10315;50.958;13.080;2023-12-20T01:11:38;3.80;99.90
20315;DHT22;10315;50.958;13.080;2023-12-20T01:21:39;3.70;99.90
20315;DHT22;10315;50.958;13.080;2023-12-20T01:31:43;3.70;99.90
20315;DHT22;10315;50.958;13.080;2023-12-20T01:41:44;3.60;99.90
20315;DHT22;10315;50.958;13.080;2023-12-20T01:51:49;3.60;99.90
20315;DHT22;10315;50.958;13.080;2023-12-20T02:01:51;3.60;99.90
20315;DHT22;10315;50.958;13.080;2023-12-20T02:11:54;3.50;99.90
20315;DHT22;10315;50.958;13.080;2023-12-20T02:22:07;3.50;99.90
20315;DHT22;10315;50.958;13.080;2023-12-20T02:32:09;3.50;99.90
20315;DHT22;10315;50.958;13.080;2023-12-20T02:42:12;3.40;99.90
20315;DHT22;10315;50.958;13.080;2023-12-20T02:52:13;3.40;99.90
20315;DHT22;10315;50.958;13.080;2023-12-20T03:02:16;3.50;99.90
20315;DHT22;10315;50.958;13.080;2023-12-20T03:12:18;3.40;99.90
20315;DHT22;10315;50.958;13.080;2023-12-20T03:22:21;3.40;99.90
20315;DHT22;10315;50.958;13.080;2023-12-20T03:32:22;3.40;99.90
20315;DHT22;10315;50.958;13.080;2023-12-20T03:42:25;3.40;99.90
20315;DHT22;10315;50.958;13.080;2023-12-20T03:52:27;3.40;99.90
20315;DHT22;10315;50.958;13.080;2023-12-20T04:02:29;3.50;99.90
20315;DHT22;10315;50.958;13.080;2023-12-20T04:12:32;3.40;99.90
20315;DHT22;10315;50.958;13.080;2023-12-20T04:22:35;3.40;99.90
20315;DHT22;10315;50.958;13.080;2023-12-20T04:32:36;3.40;99.90
20315;DHT22;10315;50.958;13.080;2023-12-20T04:42:39;3.50;99.90
20315;DHT22;10315;50.958;13.080;2023-12-20T04:52:41;3.50;99.90
20315;DHT22;10315;50.958;13.080;2023-12-20T05:02:44;3.50;99.90
20315;DHT22;10315;50.958;13.080;2023-12-20T05:12:46;3.60;99.90
20315;DHT22;10315;50.958;13.080;2023-12-20T05:22:49;3.60;99.90
20315;DHT22;10315;50.958;13.080;2023-12-20T05:32:50;3.60;99.90
20315;DHT22;10315;50.958;13.080;2023-12-20T05:42:53;3.70;99.90
20315;DHT22;10315;50.958;13.080;2023-12-20T05:52:55;3.70;99.90
20315;DHT22;10315;50.958;13.080;2023-12-20T06:02:58;3.80;99.90
20315;DHT22;10315;50.958;13.080;2023-12-20T06:12:59;3.80;99.90
20315;DHT22;10315;50.958;13.080;2023-12-20T06:23:03;3.80;99.90
20315;DHT22;10315;50.958;13.080;2023-12-20T06:33:05;3.80;99.90
20315;DHT22;10315;50.958;13.080;2023-12-20T06:43:08;3.90;99.90
20315;DHT22;10315;50.958;13.080;2023-12-20T06:53:10;4.00;99.90
20315;DHT22;10315;50.958;13.080;2023-12-20T07:03:12;4.00;99.90
20315;DHT22;10315;50.958;13.080;2023-12-20T07:13:14;4.00;99.90
20315;DHT22;10315;50.958;13.080;2023-12-20T07:23:17;4.10;99.90
20315;DHT22;10315;50.958;13.080;2023-12-20T07:33:20;4.00;99.90
20315;DHT22;10315;50.958;13.080;2023-12-20T07:43:23;3.90;99.90
20315;DHT22;10315;50.958;13.080;2023-12-20T07:53:25;3.80;99.90
20315;DHT22;10315;50.958;13.080;2023-12-20T08:03:27;3.60;99.90
20315;DHT22;10315;50.958;13.080;2023-12-20T08:13:29;3.60;99.90
20315;DHT22;10315;50.958;13.080;2023-12-20T08:23:32;4.00;99.90
20315;DHT22;10315;50.958;13.080;2023-12-20T08:33:34;4.20;99.90
20315;DHT22;10315;50.958;13.080;2023-12-20T08:43:37;4.90;99.90
20315;DHT22;10315;50.958;13.080;2023-12-20T08:53:40;4.70;99.90
20315;DHT22;10315;50.958;13.080;2023-12-20T09:03:43;4.50;99.90
20315;DHT22;10315;50.958;13.080;2023-12-20T09:13:45;5.40;99.90
20315;DHT22;10315;50.958;13.080;2023-12-20T09:23:47;5.10;99.90
20315;DHT22;10315;50.958;13.080;2023-12-20T09:33:49;5.30;99.90
20315;DHT22;10315;50.958;13.080;2023-12-20T09:43:54;5.40;99.90
20315;DHT22;10315;50.958;13.080;2023-12-20T09:53:56;5.30;99.90
20315;DHT22;10315;50.958;13.080;2023-12-20T10:04:00;5.70;99.90
20315;DHT22;10315;50.958;13.080;2023-12-20T10:14:03;5.70;99.90
20315;DHT22;10315;50.958;13.080;2023-12-20T10:24:06;5.50;99.90
20315;DHT22;10315;50.958;13.080;2023-12-20T10:34:08;5.10;99.90
20315;DHT22;10315;50.958;13.080;2023-12-20T10:44:11;5.50;99.90
20315;DHT22;10315;50.958;13.080;2023-12-20T10:54:13;5.50;99.90
20315;DHT22;10315;50.958;13.080;2023-12-20T11:04:19;5.60;99.90
20315;DHT22;10315;50.958;13.080;2023-12-20T11:14:27;5.70;99.90
20315;DHT22;10315;50.958;13.080;2023-12-20T11:24:32;5.60;99.90
20315;DHT22;10315;50.958;13.080;2023-12-20T11:34:35;5.50;99.90
20315;DHT22;10315;50.958;13.080;2023-12-20T11:44:38;5.40;99.90
20315;DHT22;10315;50.958;13.080;2023-12-20T11:54:40;5.50;99.90
20315;DHT22;10315;50.958;13.080;2023-12-20T12:04:43;5.90;99.90
20315;DHT22;10315;50.958;13.080;2023-12-20T12:14:45;5.70;99.90
20315;DHT22;10315;50.958;13.080;2023-12-20T12:24:48;5.70;99.90
20315;DHT22;10315;50.958;13.080;2023-12-20T12:34:50;6.20;99.90
20315;DHT22;10315;50.958;13.080;2023-12-20T12:44:53;6.10;99.90
20315;DHT22;10315;50.958;13.080;2023-12-20T12:54:55;5.80;99.90
20315;DHT22;10315;50.958;13.080;2023-12-20T13:04:58;5.80;99.90
20315;DHT22;10315;50.958;13.080;2023-12-20T13:15:01;6.10;99.90
20315;DHT22;10315;50.958;13.080;2023-12-20T13:25:06;5.90;99.90
20315;DHT22;10315;50.958;13.080;2023-12-20T13:35:08;6.00;99.90
20315;DHT22;10315;50.958;13.080;2023-12-20T13:45:11;5.80;99.90
20315;DHT22;10315;50.958;13.080;2023-12-20T13:55:13;5.80;99.90
20315;DHT22;10315;50.958;13.080;2023-12-20T14:05:16;5.70;99.90
20315;DHT22;10315;50.958;13.080;2023-12-20T14:15:18;5.60;99.90
20315;DHT22;10315;50.958;13.080;2023-12-20T14:25:21;5.50;99.90
20315;DHT22;10315;50.958;13.080;2023-12-20T14:35:23;5.50;99.90
20315;DHT22;10315;50.958;13.080;2023-12-20T14:45:26;5.30;99.90
20315;DHT22;10315;50.958;13.080;2023-12-20T14:55:28;5.30;99.90
20315;DHT22;10315;50.958;13.080;2023-12-20T15:05:31;5.30;99.90
20315;DHT22;10315;50.958;13.080;2023-12-20T15:15:32;5.10;99.90
20315;DHT22;10315;50.958;13.080;2023-12-20T15:25:36;5.00;99.90
20315;DHT22;10315;50.958;13.080;2023-12-20T15:35:38;5.00;99.90
20315;DHT22;10315;50.958;13.080;2023-12-20T15:45:41;4.80;99.90
20315;DHT22;10315;50.958;13.080;2023-12-20T15:55:42;4.80;99.90
20315;DHT22;10315;50.958;13.080;2023-12-20T16:05:45;4.80;99.90
20315;DHT22;10315;50.958;13.080;2023-12-20T16:15:47;4.80;99.90
20315;DHT22;10315;50.958;13.080;2023-12-20T16:25:49;4.60;99.90
20315;DHT22;10315;50.958;13.080;2023-12-20T16:35:51;4.70;99.90
20315;DHT22;10315;50.958;13.080;2023-12-20T16:45:54;4.70;99.90
20315;DHT22;10315;50.958;13.080;2023-12-20T16:55:56;4.60;99.90
20315;DHT22;10315;50.958;13.080;2023-12-20T17:05:59;4.60;99.90
20315;DHT22;10315;50.958;13.080;2023-12-20T17:16:00;4.70;99.90
20315;DHT22;10315;50.958;13.080;2023-12-20T17:26:03;4.80;99.90
20315;DHT22;10315;50.958;13.080;2023-12-20T17:36:06;4.90;99.90
20315;DHT22;10315;50.958;13.080;2023-12-20T17:46:09;4.80;99.90
20315;DHT22;10315;50.958;13.080;2023-12-20T17:56:10;4.80;99.90
20315;DHT22;10315;50.958;13.080;2023-12-20T18:06:13;4.80;99.90
20315;DHT22;10315;50.958;13.080;2023-12-20T18:16:15;4.70;99.90
20315;DHT22;10315;50.958;13.080;2023-12-20T18:26:18;4.70;99.90
20315;DHT22;10315;50.958;13.080;2023-12-20T18:36:20;4.60;99.90
20315;DHT22;10315;50.958;13.080;2023-12-20T18:46:23;4.60;99.90
20315;DHT22;10315;50.958;13.080;2023-12-20T18:56:25;4.60;99.90
20315;DHT22;10315;50.958;13.080;2023-12-20T19:06:28;4.60;99.90
20315;DHT22;10315;50.958;13.080;2023-12-20T19:16:29;4.50;99.90
20315;DHT22;10315;50.958;13.080;2023-12-20T19:26:32;4.30;99.90
20315;DHT22;10315;50.958;13.080;2023-12-20T19:36:34;4.20;99.90
20315;DHT22;10315;50.958;13.080;2023-12-20T19:46:37;4.30;99.90
20315;DHT22;10315;50.958;13.080;2023-12-20T19:56:39;4.40;99.90
20315;DHT22;10315;50.958;13.080;2023-12-20T20:06:42;4.30;99.90
20315;DHT22;10315;50.958;13.080;2023-12-20T20:16:44;4.30;99.90
20315;DHT22;10315;50.958;13.080;2023-12-20T20:26:47;4.20;99.90
20315;DHT22;10315;50.958;13.080;2023-12-20T20:36:48;4.30;99.90
20315;DHT22;10315;50.958;13.080;2023-12-20T20:46:51;4.40;99.90
20315;DHT22;10315;50.958;13.080;2023-12-20T20:56:53;4.40;99.90
20315;DHT22;10315;50.958;13.080;2023-12-20T21:06:56;4.50;99.90
20315;DHT22;10315;50.958;13.080;2023-12-20T21:16:57;4.60;99.90
20315;DHT22;10315;50.958;13.080;2023-12-20T21:27:01;4.60;99.90
20315;DHT22;10315;50.958;13.080;2023-12-20T21:37:03;4.60;99.90
20315;DHT22;10315;50.958;13.080;2023-12-20T21:47:07;4.50;99.90
20315;DHT22;10315;50.958;13.080;2023-12-20T21:57:08;4.60;99.90
20315;DHT22;10315;50.958;13.080;2023-12-20T22:07:12;4.60;99.90
20315;DHT22;10315;50.958;13.080;2023-12-20T22:17:16;4.50;99.90
20315;DHT22;10315;50.958;13.080;2023-12-20T22:27:19;4.50;99.90
20315;DHT22;10315;50.958;13.080;2023-12-20T22:37:20;4.40;99.90
20315;DHT22;10315;50.958;13.080;2023-12-20T22:47:23;4.30;99.90
20315;DHT22;10315;50.958;13.080;2023-12-20T22:57:25;4.30;99.90
20315;DHT22;10315;50.958;13.080;2023-12-20T23:07:28;4.40;99.90
20315;DHT22;10315;50.958;13.080;2023-12-20T23:17:29;4.30;99.90
20315;DHT22;10315;50.958;13.080;2023-12-20T23:27:33;4.40;99.90
20315;DHT22;10315;50.958;13.080;2023-12-20T23:37:34;4.40;99.90
20315;DHT22;10315;50.958;13.080;2023-12-20T23:47:37;4.40;99.90
20315;DHT22;10315;50.958;13.080;2023-12-20T23:57:39;4.50;99.90
